createdAt,value
2018-06-11T00:01:07.057Z,14.87
2018-06-11T00:03:35.448Z,13.90
2018-06-11T00:06:03.852Z,14.00
2018-06-11T00:08:32.175Z,15.07
2018-06-11T00:11:00.506Z,14.13
2018-06-11T00:13:28.837Z,14.10
2018-06-11T00:15:57.247Z,13.80
2018-06-11T00:18:25.559Z,13.93
2018-06-11T00:20:54.076Z,13.50
2018-06-11T00:23:22.447Z,12.83
2018-06-11T00:25:50.737Z,13.07
2018-06-11T00:28:19.103Z,11.00
2018-06-11T00:30:47.479Z,10.20
2018-06-11T00:33:15.815Z,9.60
2018-06-11T00:35:44.136Z,9.47
2018-06-11T00:38:12.444Z,8.47
2018-06-11T00:40:40.511Z,7.67
2018-06-11T00:43:08.805Z,7.73
2018-06-11T00:45:37.189Z,7.60
2018-06-11T00:48:05.576Z,6.93
2018-06-11T00:50:33.872Z,6.57
2018-06-11T00:53:02.221Z,6.60
2018-06-11T00:55:41.955Z,6.07
2018-06-11T00:58:10.255Z,6.73
2018-06-11T01:00:38.574Z,6.40
2018-06-11T01:03:06.951Z,5.60
2018-06-11T01:05:35.283Z,5.43
2018-06-11T01:08:03.599Z,5.57
2018-06-11T01:10:31.905Z,5.07
2018-06-11T01:13:00.245Z,5.13
2018-06-11T01:15:28.496Z,5.07
2018-06-11T01:17:56.809Z,4.93
2018-06-11T01:20:25.086Z,4.47
2018-06-11T01:22:53.396Z,5.17
2018-06-11T01:25:21.767Z,4.90
2018-06-11T01:27:50.072Z,4.77
2018-06-11T01:30:18.387Z,4.67
2018-06-11T01:32:46.745Z,4.93
2018-06-11T01:35:15.059Z,4.40
2018-06-11T01:37:43.400Z,4.80
2018-06-11T01:40:11.708Z,4.07
2018-06-11T01:42:40.088Z,4.60
2018-06-11T01:45:08.362Z,4.53
2018-06-11T01:47:36.828Z,4.13
2018-06-11T01:50:05.148Z,5.10
2018-06-11T01:52:33.195Z,4.83
2018-06-11T01:55:01.534Z,4.60
2018-06-11T01:57:29.854Z,4.27
2018-06-11T01:59:58.223Z,3.93
2018-06-11T02:02:26.520Z,4.40
2018-06-11T02:04:54.893Z,4.73
2018-06-11T02:07:23.280Z,4.57
2018-06-11T02:09:51.685Z,4.53
2018-06-11T02:12:20.263Z,5.10
2018-06-11T02:14:48.556Z,5.93
2018-06-11T02:17:16.964Z,5.90
2018-06-11T02:19:45.267Z,5.43
2018-06-11T02:22:13.588Z,5.60
2018-06-11T02:24:41.916Z,5.70
2018-06-11T02:27:10.447Z,5.97
2018-06-11T02:29:42.543Z,6.50
2018-06-11T02:32:10.800Z,5.70
2018-06-11T02:34:39.134Z,6.63
2018-06-11T02:37:07.407Z,5.67
2018-06-11T02:39:35.616Z,5.30
2018-06-11T02:42:03.964Z,6.23
2018-06-11T02:44:32.245Z,6.00
2018-06-11T02:47:00.457Z,5.73
2018-06-11T02:49:28.697Z,6.57
2018-06-11T02:51:56.930Z,6.37
2018-06-11T02:54:25.177Z,6.87
2018-06-11T02:56:53.401Z,6.50
2018-06-11T02:59:21.420Z,6.07
2018-06-11T03:01:49.697Z,6.47
2018-06-11T03:04:17.921Z,6.67
2018-06-11T03:06:46.157Z,6.10
2018-06-11T03:09:14.403Z,6.90
2018-06-11T03:11:42.669Z,5.93
2018-06-11T03:14:10.929Z,5.67
2018-06-11T03:16:39.155Z,6.27
2018-06-11T03:19:07.815Z,6.47
2018-06-11T03:21:36.187Z,5.77
2018-06-11T03:24:04.423Z,5.50
2018-06-11T03:26:32.658Z,5.43
2018-06-11T03:29:00.930Z,5.03
2018-06-11T03:31:29.213Z,5.80
2018-06-11T03:33:57.471Z,5.80
2018-06-11T03:36:25.700Z,5.77
2018-06-11T03:38:53.950Z,5.77
2018-06-11T03:41:22.204Z,5.57
2018-06-11T03:43:50.480Z,6.17
2018-06-11T03:46:18.732Z,6.50
2018-06-11T03:48:47.057Z,5.60
2018-06-11T03:51:15.305Z,5.77
2018-06-11T03:53:43.605Z,5.60
2018-06-11T03:56:11.865Z,5.93
2018-06-11T03:58:41.377Z,5.20
2018-06-11T04:01:10.361Z,5.60
2018-06-11T04:03:38.649Z,6.03
2018-06-11T04:06:08.931Z,5.60
2018-06-11T04:08:37.231Z,5.80
2018-06-11T04:11:05.613Z,5.90
2018-06-11T04:13:33.797Z,6.00
2018-06-11T04:16:02.079Z,6.50
2018-06-11T04:18:30.341Z,5.60
2018-06-11T04:20:58.624Z,5.40
2018-06-11T04:23:27.703Z,6.20
2018-06-11T04:25:55.947Z,6.70
2018-06-11T04:28:23.931Z,6.30
2018-06-11T04:30:52.174Z,6.07
2018-06-11T04:33:20.415Z,6.80
2018-06-11T04:35:48.674Z,6.47
2018-06-11T04:38:16.949Z,6.50
2018-06-11T04:40:45.176Z,6.60
2018-06-11T04:43:13.436Z,6.07
2018-06-11T04:45:41.675Z,6.83
2018-06-11T04:48:09.907Z,7.30
2018-06-11T04:50:38.152Z,6.73
2018-06-11T04:53:06.461Z,7.03
2018-06-11T04:55:34.700Z,7.83
2018-06-11T04:58:02.988Z,7.33
2018-06-11T05:00:31.253Z,6.57
2018-06-11T05:02:59.505Z,6.83
2018-06-11T05:05:27.774Z,6.60
2018-06-11T05:07:56.107Z,6.40
2018-06-11T05:10:24.355Z,5.80
2018-06-11T05:12:52.621Z,6.60
2018-06-11T05:15:20.854Z,6.90
2018-06-11T05:17:49.160Z,5.60
2018-06-11T05:20:17.440Z,5.63
2018-06-11T05:22:47.709Z,5.40
2018-06-11T05:25:15.969Z,5.67
2018-06-11T05:27:44.263Z,4.73
2018-06-11T05:30:12.542Z,4.40
2018-06-11T05:32:40.813Z,4.50
2018-06-11T05:35:09.089Z,4.70
2018-06-11T05:37:37.353Z,4.40
2018-06-11T05:40:05.352Z,3.90
2018-06-11T05:42:33.563Z,3.77
2018-06-11T05:45:01.890Z,4.03
2018-06-11T05:47:30.125Z,4.20
2018-06-11T05:49:58.377Z,3.77
2018-06-11T05:52:26.672Z,3.60
2018-06-11T05:54:54.929Z,3.67
2018-06-11T05:57:23.155Z,3.27
2018-06-11T05:59:51.462Z,2.50
2018-06-11T06:02:20.233Z,3.03
2018-06-11T06:04:48.642Z,2.60
2018-06-11T06:07:16.944Z,2.43
2018-06-11T06:09:45.172Z,2.93
2018-06-11T06:12:13.534Z,4.23
2018-06-11T06:14:41.793Z,3.00
2018-06-11T06:17:10.090Z,2.90
2018-06-11T06:19:38.445Z,2.90
2018-06-11T06:22:06.657Z,3.83
2018-06-11T06:24:34.992Z,3.13
2018-06-11T06:27:03.833Z,3.50
2018-06-11T06:29:32.084Z,3.33
2018-06-11T06:32:00.381Z,2.93
2018-06-11T06:34:28.713Z,3.33
2018-06-11T06:36:56.913Z,3.10
2018-06-11T06:39:25.164Z,2.97
2018-06-11T06:41:53.428Z,2.70
2018-06-11T06:44:21.745Z,3.07
2018-06-11T06:46:50.020Z,2.90
2018-06-11T06:49:18.302Z,3.07
2018-06-11T06:51:46.574Z,3.03
2018-06-11T06:54:14.895Z,3.03
2018-06-11T06:56:43.128Z,2.93
2018-06-11T06:59:11.412Z,3.00
2018-06-11T07:01:39.684Z,3.07
2018-06-11T07:04:07.956Z,2.53
2018-06-11T07:06:36.172Z,2.60
2018-06-11T07:09:07.193Z,2.90
2018-06-11T07:11:35.715Z,3.10
2018-06-11T07:14:03.993Z,3.20
2018-06-11T07:16:32.316Z,3.00
2018-06-11T07:19:00.585Z,3.30
2018-06-11T07:21:31.736Z,3.00
2018-06-11T07:23:59.709Z,2.73
2018-06-11T07:26:28.044Z,3.20
2018-06-11T07:28:56.276Z,3.13
2018-06-11T07:31:24.574Z,2.83
2018-06-11T07:33:52.841Z,3.40
2018-06-11T07:36:21.140Z,3.73
2018-06-11T07:38:49.397Z,3.10
2018-06-11T07:41:17.652Z,3.33
2018-06-11T07:43:45.921Z,3.37
2018-06-11T07:46:15.329Z,3.50
2018-06-11T07:48:43.807Z,3.20
2018-06-11T07:51:12.685Z,3.50
2018-06-11T07:53:41.044Z,3.30
2018-06-11T07:56:09.375Z,3.00
2018-06-11T07:58:37.617Z,3.53
2018-06-11T08:01:05.976Z,3.20
2018-06-11T08:03:34.254Z,3.40
2018-06-11T08:06:02.469Z,3.20
2018-06-11T08:08:30.733Z,3.10
2018-06-11T08:10:58.980Z,3.50
2018-06-11T08:13:27.299Z,3.30
2018-06-11T08:15:55.460Z,3.00
2018-06-11T08:18:23.732Z,3.67
2018-06-11T08:20:52.300Z,3.47
2018-06-11T08:23:20.496Z,3.07
2018-06-11T08:25:48.763Z,3.00
2018-06-11T08:28:16.968Z,3.10
2018-06-11T08:30:45.417Z,3.00
2018-06-11T08:33:13.724Z,4.10
2018-06-11T08:35:41.970Z,3.50
2018-06-11T08:38:10.251Z,3.40
2018-06-11T08:40:38.539Z,3.90
2018-06-11T08:43:06.876Z,3.70
2018-06-11T08:45:35.089Z,3.53
2018-06-11T08:48:03.405Z,3.83
2018-06-11T08:50:31.795Z,4.23
2018-06-11T08:53:00.009Z,4.20
2018-06-11T08:55:28.248Z,3.40
2018-06-11T08:57:56.542Z,4.13
2018-06-11T09:00:24.888Z,4.40
2018-06-11T09:02:53.132Z,3.90
2018-06-11T09:05:21.421Z,4.00
2018-06-11T09:07:49.727Z,4.63
2018-06-11T09:10:18.058Z,4.77
2018-06-11T09:12:46.457Z,3.60
2018-06-11T09:15:14.779Z,4.13
2018-06-11T09:17:43.060Z,3.90
2018-06-11T09:20:11.393Z,3.50
2018-06-11T09:22:39.674Z,3.07
2018-06-11T09:25:08.029Z,3.70
2018-06-11T09:27:36.289Z,3.27
2018-06-11T09:30:05.181Z,3.67
2018-06-11T09:32:33.419Z,2.90
2018-06-11T09:35:01.701Z,3.57
2018-06-11T09:37:29.975Z,3.40
2018-06-11T09:39:58.228Z,3.60
2018-06-11T09:42:26.533Z,3.53
2018-06-11T09:44:55.046Z,4.03
2018-06-11T09:47:23.405Z,3.80
2018-06-11T09:49:52.540Z,3.37
2018-06-11T09:52:20.817Z,3.60
2018-06-11T09:54:48.880Z,3.10
2018-06-11T09:57:17.288Z,3.57
2018-06-11T09:59:45.564Z,3.13
2018-06-11T10:02:13.821Z,3.60
2018-06-11T10:04:42.091Z,3.93
2018-06-11T10:07:10.396Z,3.13
2018-06-11T10:09:38.632Z,3.53
2018-06-11T10:12:06.711Z,3.00
2018-06-11T10:14:35.033Z,3.47
2018-06-11T10:17:03.405Z,3.60
2018-06-11T10:19:31.705Z,3.40
2018-06-11T10:21:59.970Z,3.67
2018-06-11T10:24:28.309Z,3.50
2018-06-11T10:26:56.889Z,3.63
2018-06-11T10:29:25.134Z,4.17
2018-06-11T10:31:53.855Z,3.50
2018-06-11T10:34:22.080Z,4.27
2018-06-11T10:36:50.473Z,3.27
2018-06-11T10:39:18.788Z,3.13
2018-06-11T10:41:47.530Z,3.33
2018-06-11T10:44:15.816Z,3.83
2018-06-11T10:46:44.100Z,3.70
2018-06-11T10:49:12.360Z,3.37
2018-06-11T10:51:40.625Z,3.27
2018-06-11T10:54:08.882Z,3.10
2018-06-11T10:56:37.312Z,3.17
2018-06-11T10:59:05.917Z,3.40
2018-06-11T11:01:34.161Z,4.00
2018-06-11T11:04:02.449Z,3.80
2018-06-11T11:06:30.713Z,3.30
2018-06-11T11:08:58.973Z,3.07
2018-06-11T11:11:27.226Z,3.30
2018-06-11T11:13:55.626Z,3.50
2018-06-11T11:16:24.165Z,3.93
2018-06-11T11:18:52.405Z,3.30
2018-06-11T11:21:20.680Z,3.40
2018-06-11T11:23:48.892Z,3.20
2018-06-11T11:26:17.251Z,3.70
2018-06-11T11:28:45.501Z,3.50
2018-06-11T11:31:13.776Z,3.40
2018-06-11T11:33:42.083Z,3.53
2018-06-11T11:36:10.271Z,3.70
2018-06-11T11:38:38.700Z,3.60
2018-06-11T11:41:06.924Z,3.57
2018-06-11T11:43:35.168Z,3.33
2018-06-11T11:46:03.464Z,3.47
2018-06-11T11:48:31.806Z,3.43
2018-06-11T11:51:00.256Z,2.90
2018-06-11T11:53:28.480Z,3.50
2018-06-11T11:55:56.884Z,3.40
2018-06-11T11:58:25.229Z,3.00
2018-06-11T12:00:53.477Z,4.00
2018-06-11T12:03:21.800Z,3.30
2018-06-11T12:05:50.184Z,3.33
2018-06-11T12:08:19.128Z,3.40
2018-06-11T12:10:47.422Z,3.20
2018-06-11T12:13:15.716Z,3.42
2018-06-11T12:15:43.976Z,3.45
2018-06-11T12:18:13.029Z,3.67
2018-06-11T12:20:41.404Z,3.65
2018-06-11T12:23:09.662Z,3.30
2018-06-11T12:25:37.936Z,3.33
2018-06-11T12:28:06.193Z,4.15
2018-06-11T12:30:34.467Z,3.33
2018-06-11T12:33:02.694Z,3.22
2018-06-11T12:35:30.698Z,2.87
2018-06-11T12:37:58.911Z,3.20
2018-06-11T12:40:28.128Z,3.05
2018-06-11T12:42:56.384Z,2.65
2018-06-11T12:45:24.691Z,2.75
2018-06-11T12:47:53.449Z,3.00
2018-06-11T12:50:21.708Z,3.60
2018-06-11T12:52:49.962Z,3.02
2018-06-11T12:55:19.604Z,3.30
2018-06-11T12:57:48.824Z,2.85
2018-06-11T13:00:17.064Z,3.67
2018-06-11T13:02:45.597Z,3.33
2018-06-11T13:05:13.857Z,3.30
2018-06-11T13:07:42.106Z,3.40
2018-06-11T13:10:11.132Z,3.17
2018-06-11T13:12:41.532Z,3.42
2018-06-11T13:15:09.885Z,2.77
2018-06-11T13:17:38.148Z,3.35
2018-06-11T13:20:06.420Z,2.80
2018-06-11T13:22:34.738Z,3.12
2018-06-11T13:25:02.992Z,3.00
2018-06-11T13:27:31.348Z,3.33
2018-06-11T13:29:59.665Z,3.10
2018-06-11T13:32:27.952Z,3.72
2018-06-11T13:34:56.196Z,3.22
2018-06-11T13:37:24.420Z,3.80
2018-06-11T13:39:52.686Z,3.50
2018-06-11T13:42:21.052Z,3.90
2018-06-11T13:44:49.279Z,3.75
2018-06-11T13:47:17.509Z,3.77
2018-06-11T13:49:45.772Z,4.37
2018-06-11T13:52:14.061Z,4.12
2018-06-11T13:54:42.293Z,4.20
2018-06-11T13:57:10.537Z,4.03
2018-06-11T13:59:39.240Z,4.10
2018-06-11T14:02:07.496Z,4.13
2018-06-11T14:04:37.381Z,3.93
2018-06-11T14:07:05.643Z,3.60
2018-06-11T14:09:33.891Z,5.07
2018-06-11T14:12:02.241Z,3.93
2018-06-11T14:14:30.476Z,3.97
2018-06-11T14:16:58.760Z,4.23
2018-06-11T14:19:26.998Z,4.55
2018-06-11T14:21:55.274Z,4.20
2018-06-11T14:24:23.523Z,4.23
2018-06-11T14:26:51.783Z,3.70
2018-06-11T14:29:20.001Z,3.67
2018-06-11T14:31:48.555Z,3.80
2018-06-11T14:34:16.815Z,4.80
2018-06-11T14:36:44.800Z,4.27
2018-06-11T14:39:13.167Z,4.67
2018-06-11T14:41:41.421Z,4.90
2018-06-11T14:44:09.764Z,4.93
2018-06-11T14:46:38.008Z,4.70
2018-06-11T14:49:06.038Z,4.83
2018-06-11T14:51:34.293Z,4.67
2018-06-11T14:54:02.536Z,3.93
2018-06-11T14:56:30.794Z,3.70
2018-06-11T14:58:59.088Z,3.70
2018-06-11T15:01:27.515Z,4.10
2018-06-11T15:03:55.777Z,3.87
2018-06-11T15:06:24.022Z,3.63
2018-06-11T15:08:52.314Z,3.53
2018-06-11T15:11:21.100Z,2.90
2018-06-11T15:13:49.344Z,3.70
2018-06-11T15:16:18.268Z,3.67
2018-06-11T15:18:46.529Z,3.53
2018-06-11T15:21:15.571Z,3.63
2018-06-11T15:23:43.817Z,3.97
2018-06-11T15:26:12.092Z,3.83
2018-06-11T15:28:40.339Z,3.97
2018-06-11T15:31:08.581Z,4.57
2018-06-11T15:33:36.849Z,4.77
2018-06-11T15:36:05.117Z,4.13
2018-06-11T15:38:33.424Z,3.23
2018-06-11T15:41:01.703Z,3.90
2018-06-11T15:43:29.994Z,3.77
2018-06-11T15:45:58.237Z,3.80
2018-06-11T15:48:26.477Z,3.80
2018-06-11T15:50:54.725Z,3.67
2018-06-11T15:53:23.000Z,4.03
2018-06-11T15:55:51.293Z,4.43
2018-06-11T15:58:19.745Z,3.80
2018-06-11T16:00:48.044Z,4.17
2018-06-11T16:03:16.313Z,4.20
2018-06-11T16:05:44.595Z,3.53
2018-06-11T16:08:12.861Z,3.60
2018-06-11T16:10:40.861Z,3.20
2018-06-11T16:13:09.245Z,4.07
2018-06-11T16:15:37.528Z,3.73
2018-06-11T16:18:05.805Z,4.00
2018-06-11T16:20:34.089Z,3.43
2018-06-11T16:23:02.316Z,3.70
2018-06-11T16:25:30.616Z,3.70
2018-06-11T16:27:58.888Z,3.83
2018-06-11T16:30:27.147Z,3.30
2018-06-11T16:32:55.436Z,3.80
2018-06-11T16:35:23.698Z,4.00
2018-06-11T16:37:52.017Z,3.90
2018-06-11T16:40:20.288Z,4.20
2018-06-11T16:42:48.565Z,4.33
2018-06-11T16:45:16.872Z,4.10
2018-06-11T16:47:45.144Z,4.20
2018-06-11T16:50:13.360Z,3.80
2018-06-11T16:52:41.634Z,4.07
2018-06-11T16:55:09.950Z,3.97
2018-06-11T16:57:38.210Z,4.10
2018-06-11T17:00:06.488Z,3.97
2018-06-11T17:02:34.743Z,3.87
2018-06-11T17:05:02.990Z,4.00
2018-06-11T17:07:31.258Z,4.37
2018-06-11T17:09:59.531Z,3.93
2018-06-11T17:12:27.876Z,3.87
2018-06-11T17:14:56.123Z,4.00
2018-06-11T17:17:24.367Z,3.83
2018-06-11T17:19:52.747Z,4.00
2018-06-11T17:22:21.074Z,4.20
2018-06-11T17:24:49.304Z,4.27
2018-06-11T17:27:17.572Z,4.10
2018-06-11T17:29:45.848Z,4.67
2018-06-11T17:32:14.137Z,4.90
2018-06-11T17:34:42.465Z,4.23
2018-06-11T17:37:10.714Z,4.47
2018-06-11T17:39:38.956Z,4.40
2018-06-11T17:42:07.513Z,4.47
2018-06-11T17:44:35.787Z,4.80
2018-06-11T17:47:04.051Z,4.60
2018-06-11T17:49:32.291Z,4.47
2018-06-11T17:52:00.246Z,4.20
2018-06-11T17:54:28.567Z,4.50
2018-06-11T17:56:56.860Z,4.43
2018-06-11T17:59:25.140Z,5.13
2018-06-11T18:01:53.377Z,4.53
2018-06-11T18:04:21.699Z,4.37
2018-06-11T18:06:49.879Z,4.70
2018-06-11T18:09:18.172Z,4.87
2018-06-11T18:11:46.448Z,4.53
2018-06-11T18:14:14.660Z,4.70
2018-06-11T18:16:42.920Z,5.30
2018-06-11T18:19:11.185Z,5.17
2018-06-11T18:21:39.400Z,5.30
2018-06-11T18:24:07.913Z,5.00
2018-06-11T18:26:36.190Z,5.43
2018-06-11T18:29:04.519Z,4.97
2018-06-11T18:31:32.813Z,5.43
2018-06-11T18:34:01.119Z,5.20
2018-06-11T18:36:29.387Z,4.90
2018-06-11T18:38:57.624Z,5.03
2018-06-11T18:41:25.880Z,5.17
2018-06-11T18:46:45.164Z,4.60
2018-06-11T18:49:13.518Z,4.40
2018-06-11T18:51:41.840Z,4.60
2018-06-11T18:54:10.276Z,4.27
2018-06-11T18:56:38.687Z,4.10
2018-06-11T18:59:07.177Z,4.37
2018-06-11T19:01:35.512Z,5.07
2018-06-11T19:04:03.931Z,6.60
2018-06-11T19:06:32.575Z,4.00
2018-06-11T19:09:00.915Z,4.03
2018-06-11T19:11:29.260Z,4.10
2018-06-11T19:13:57.600Z,3.57
2018-06-11T19:16:25.955Z,4.30
2018-06-11T19:18:54.297Z,3.80
2018-06-11T19:21:22.648Z,4.23
2018-06-11T19:23:50.972Z,4.30
2018-06-11T19:26:19.294Z,4.20
2018-06-11T19:28:47.644Z,3.57
2018-06-11T19:31:15.929Z,3.83
2018-06-11T19:33:44.371Z,3.93
2018-06-11T19:36:12.510Z,4.33
2018-06-11T19:38:40.822Z,3.90
2018-06-11T19:41:09.215Z,4.07
2018-06-11T19:43:37.545Z,4.13
2018-06-11T19:46:05.948Z,3.80
2018-06-11T19:48:34.279Z,3.87
2018-06-11T19:51:02.739Z,3.20
2018-06-11T19:53:31.059Z,3.40
2018-06-11T19:55:59.512Z,3.60
2018-06-11T19:58:27.897Z,3.63
2018-06-11T20:00:56.273Z,3.43
2018-06-11T20:03:24.614Z,3.70
2018-06-11T20:05:53.308Z,3.47
2018-06-11T20:08:21.623Z,3.23
2018-06-11T20:10:49.944Z,3.67
2018-06-11T20:13:18.232Z,3.40
2018-06-11T20:15:46.605Z,3.20
2018-06-11T20:18:14.935Z,2.67
2018-06-11T20:20:43.262Z,3.20
2018-06-11T20:23:11.655Z,3.20
2018-06-11T20:25:39.976Z,3.00
2018-06-11T20:28:08.264Z,3.50
2018-06-11T20:30:36.565Z,3.40
2018-06-11T20:33:05.020Z,3.50
2018-06-11T20:35:33.317Z,3.37
2018-06-11T20:38:01.625Z,3.40
2018-06-11T20:40:29.932Z,3.37
2018-06-11T20:42:58.302Z,3.00
2018-06-11T20:45:26.619Z,3.07
2018-06-11T20:47:54.963Z,3.00
2018-06-11T20:50:23.801Z,3.20
2018-06-11T20:52:52.184Z,2.63
2018-06-11T20:55:20.561Z,3.53
2018-06-11T20:57:49.938Z,3.70
2018-06-11T21:00:18.239Z,3.10
2018-06-11T21:02:46.603Z,3.20
2018-06-11T21:05:14.923Z,3.80
2018-06-11T21:07:43.225Z,3.50
2018-06-11T21:10:11.703Z,3.20
2018-06-11T21:12:40.032Z,3.47
2018-06-11T21:15:08.395Z,3.33
2018-06-11T21:17:36.796Z,3.13
2018-06-11T21:20:05.274Z,3.47
2018-06-11T21:22:33.607Z,3.63
2018-06-11T21:25:01.933Z,3.13
2018-06-11T21:27:30.308Z,3.40
2018-06-11T21:29:58.640Z,3.33
2018-06-11T21:32:27.039Z,3.50
2018-06-11T21:34:55.391Z,3.80
2018-06-11T21:37:23.794Z,3.37
2018-06-11T21:39:52.126Z,3.50
2018-06-11T21:42:20.457Z,3.60
2018-06-11T21:44:48.776Z,3.50
2018-06-11T21:47:17.081Z,3.63
2018-06-11T21:49:45.378Z,3.63
2018-06-11T21:52:13.772Z,3.83
2018-06-11T21:54:42.092Z,3.80
2018-06-11T21:57:10.416Z,3.80
2018-06-11T21:59:38.532Z,3.70
2018-06-11T22:02:06.919Z,3.77
2018-06-11T22:04:35.277Z,3.83
2018-06-11T22:07:03.658Z,4.37
2018-06-11T22:09:32.016Z,3.60
2018-06-11T22:12:01.745Z,3.67
2018-06-11T22:14:30.237Z,4.20
2018-06-11T22:16:58.737Z,4.00
2018-06-11T22:19:27.036Z,4.60
2018-06-11T22:21:55.563Z,3.90
2018-06-11T22:24:23.868Z,3.50
2018-06-11T22:26:52.679Z,3.83
2018-06-11T22:29:21.220Z,4.07
2018-06-11T22:31:49.652Z,3.53
2018-06-11T22:34:18.192Z,3.80
2018-06-11T22:36:46.612Z,4.00
2018-06-11T22:39:14.952Z,3.47
2018-06-11T22:41:43.364Z,3.63
2018-06-11T22:44:11.708Z,3.70
2018-06-11T22:46:40.021Z,4.13
2018-06-11T22:49:08.432Z,3.90
2018-06-11T22:51:36.767Z,3.90
2018-06-11T22:54:05.228Z,3.83
2018-06-11T22:56:33.583Z,3.97
2018-06-11T22:59:01.901Z,3.60
2018-06-11T23:01:30.225Z,3.40
2018-06-11T23:03:58.259Z,3.10
2018-06-11T23:06:26.603Z,3.33
2018-06-11T23:08:54.920Z,2.97
2018-06-11T23:11:29.997Z,3.43
2018-06-11T23:13:58.347Z,3.43
2018-06-11T23:16:26.368Z,3.40
2018-06-11T23:18:54.689Z,3.07
2018-06-11T23:21:23.037Z,3.10
2018-06-11T23:23:51.339Z,3.10
2018-06-11T23:26:19.779Z,3.33
2018-06-11T23:28:48.092Z,3.20
2018-06-11T23:31:16.493Z,3.57
2018-06-11T23:33:44.847Z,3.00
2018-06-11T23:36:13.180Z,3.30
2018-06-11T23:38:41.513Z,3.80
2018-06-11T23:41:09.950Z,3.90
2018-06-11T23:46:13.042Z,3.83
2018-06-11T23:48:41.388Z,3.70
2018-06-11T23:51:09.802Z,3.97
2018-06-11T23:53:38.135Z,4.13
2018-06-11T23:56:06.559Z,3.73
2018-06-11T23:58:34.863Z,3.60
